createdAt,value
2022-09-05T00:02:01.646Z,21.49
2022-09-05T00:04:29.314Z,21.49
2022-09-05T00:06:36.633Z,21.45
2022-09-05T00:08:46.165Z,21.44
2022-09-05T00:11:41.054Z,21.41
2022-09-05T00:13:57.403Z,21.38
2022-09-05T00:16:27.250Z,21.34
2022-09-05T00:23:52.943Z,21.31
2022-09-05T00:24:26.948Z,21.28
2022-09-05T00:25:00.738Z,21.24
2022-09-05T00:27:13.744Z,21.20
2022-09-05T00:30:32.057Z,21.17
2022-09-05T00:32:10.798Z,21.16
2022-09-05T00:34:25.717Z,21.15
2022-09-05T00:36:46.306Z,21.13
2022-09-05T00:39:04.167Z,21.11
2022-09-05T00:41:11.381Z,21.09
2022-09-05T00:43:25.097Z,21.04
2022-09-05T00:45:39.597Z,21.03
2022-09-05T00:47:55.327Z,20.99
2022-09-05T00:50:01.794Z,20.98
2022-09-05T00:52:24.644Z,20.94
2022-09-05T00:54:53.718Z,20.92
2022-09-05T00:57:30.686Z,20.89
2022-09-05T00:59:58.468Z,20.86
2022-09-05T01:02:27.601Z,20.84
2022-09-05T01:04:58.906Z,20.80
2022-09-05T01:07:37.992Z,20.78
2022-09-05T01:10:03.926Z,20.78
2022-09-05T01:12:19.957Z,20.72
2022-09-05T01:14:35.095Z,20.71
2022-09-05T01:17:05.100Z,20.69
2022-09-05T01:19:16.026Z,20.66
2022-09-05T01:21:29.818Z,20.66
2022-09-05T01:23:43.841Z,20.64
2022-09-05T01:26:23.149Z,20.60
2022-09-05T01:29:16.677Z,20.60
2022-09-05T01:31:30.332Z,20.53
2022-09-05T01:33:59.775Z,20.51
2022-09-05T01:36:20.628Z,20.49
2022-09-05T01:39:49.182Z,20.45
2022-09-05T01:41:36.464Z,20.41
2022-09-05T01:44:02.869Z,20.39
2022-09-05T01:46:22.845Z,20.36
2022-09-05T01:49:14.751Z,20.32
2022-09-05T01:51:46.162Z,20.27
2022-09-05T01:53:58.065Z,20.24
2022-09-05T01:56:25.897Z,20.22
2022-09-05T01:58:50.847Z,20.17
2022-09-05T02:01:30.103Z,20.15
2022-09-05T02:03:50.255Z,20.10
2022-09-05T02:06:33.443Z,20.07
2022-09-05T02:09:18.894Z,20.03
2022-09-05T02:11:41.673Z,20.00
2022-09-05T02:13:58.623Z,19.98
2022-09-05T02:16:07.687Z,19.96
2022-09-05T02:18:19.448Z,19.95
2022-09-05T02:20:31.878Z,19.94
2022-09-05T02:23:00.631Z,19.91
2022-09-05T02:25:32.132Z,19.89
2022-09-05T02:28:04.591Z,19.86
2022-09-05T02:30:17.364Z,19.86
2022-09-05T02:32:32.126Z,19.82
2022-09-05T02:34:53.472Z,19.81
2022-09-05T02:37:05.759Z,19.77
2022-09-05T02:45:01.648Z,19.73
2022-09-05T02:45:10.984Z,19.69
2022-09-05T02:45:17.796Z,19.66
2022-09-05T02:47:09.856Z,19.60
2022-09-05T02:51:04.184Z,19.56
2022-09-05T02:57:29.106Z,19.53
2022-09-05T02:57:41.358Z,19.51
2022-09-05T02:57:44.561Z,19.47
2022-09-05T03:00:03.215Z,19.44
2022-09-05T03:02:25.991Z,19.40
2022-09-05T03:05:04.481Z,19.36
2022-09-05T03:07:12.083Z,19.33
2022-09-05T03:09:29.861Z,19.31
2022-09-05T03:11:50.170Z,19.30
2022-09-05T03:14:13.403Z,19.28
2022-09-05T03:16:17.701Z,19.26
2022-09-05T03:18:47.265Z,19.23
2022-09-05T03:21:24.221Z,19.22
2022-09-05T03:23:52.200Z,19.16
2022-09-05T03:26:29.092Z,19.15
2022-09-05T03:29:01.766Z,19.11
2022-09-05T03:31:22.723Z,19.09
2022-09-05T03:33:41.359Z,19.07
2022-09-05T03:36:22.344Z,19.02
2022-09-05T03:38:30.090Z,19.01
2022-09-05T03:41:04.675Z,18.99
2022-09-05T03:43:40.971Z,18.96
2022-09-05T03:45:54.896Z,18.94
2022-09-05T03:48:38.021Z,18.92
2022-09-05T03:56:55.597Z,18.90
2022-09-05T03:57:22.451Z,18.86
2022-09-05T03:57:24.719Z,18.88
2022-09-05T03:59:30.799Z,18.82
2022-09-05T04:04:14.230Z,18.82
2022-09-05T04:08:07.315Z,18.79
2022-09-05T04:08:20.760Z,18.77
2022-09-05T04:09:50.472Z,18.76
2022-09-05T04:11:57.785Z,18.76
2022-09-05T04:14:10.707Z,18.73
2022-09-05T04:16:24.861Z,18.72
2022-09-05T04:18:39.426Z,18.70
2022-09-05T04:20:57.170Z,18.68
2022-09-05T04:23:34.677Z,18.65
2022-09-05T04:26:11.710Z,18.61
2022-09-05T04:28:41.382Z,18.60
2022-09-05T04:31:04.624Z,18.58
2022-09-05T04:33:17.568Z,18.57
2022-09-05T04:35:31.758Z,18.57
2022-09-05T04:37:48.436Z,18.55
2022-09-05T04:39:50.814Z,18.53
2022-09-05T04:42:06.664Z,18.53
2022-09-05T04:44:17.295Z,18.51
2022-09-05T04:46:28.868Z,18.51
2022-09-05T04:48:48.062Z,18.51
2022-09-05T04:51:12.817Z,18.50
2022-09-05T04:53:33.439Z,18.48
2022-09-05T04:55:50.659Z,18.48
2022-09-05T04:58:00.134Z,18.47
2022-09-05T05:05:58.267Z,18.48
2022-09-05T05:06:12.050Z,18.47
2022-09-05T05:06:19.738Z,18.45
2022-09-05T05:08:05.632Z,18.41
2022-09-05T05:13:28.288Z,18.42
2022-09-05T05:18:03.136Z,18.38
2022-09-05T05:18:15.158Z,18.38
2022-09-05T05:18:42.274Z,18.40
2022-09-05T05:20:42.106Z,18.40
2022-09-05T05:22:47.938Z,18.40
2022-09-05T05:24:57.341Z,18.40
2022-09-05T05:27:04.224Z,18.41
2022-09-05T05:29:38.863Z,18.40
2022-09-05T05:31:58.410Z,18.40
2022-09-05T05:34:24.209Z,18.40
2022-09-05T05:36:30.823Z,18.42
2022-09-05T05:38:49.174Z,18.42
2022-09-05T05:40:58.276Z,18.45
2022-09-05T05:43:25.902Z,18.45
2022-09-05T05:45:30.926Z,18.47
2022-09-05T05:47:42.748Z,18.47
2022-09-05T05:50:11.240Z,18.49
2022-09-05T05:52:37.993Z,18.50
2022-09-05T05:54:45.745Z,18.52
2022-09-05T05:57:10.075Z,18.53
2022-09-05T05:59:29.997Z,18.56
2022-09-05T06:01:40.367Z,18.60
2022-09-05T06:04:02.347Z,18.63
2022-09-05T06:06:10.147Z,18.67
2022-09-05T06:12:08.329Z,18.72
2022-09-05T06:14:51.850Z,18.77
2022-09-05T06:15:05.622Z,18.84
2022-09-05T06:16:55.121Z,18.94
2022-09-05T06:19:25.507Z,19.10
2022-09-05T06:22:11.745Z,19.29
2022-09-05T06:24:33.000Z,19.52
2022-09-05T06:26:49.210Z,19.73
2022-09-05T06:29:09.772Z,19.93
2022-09-05T06:31:30.732Z,20.15
2022-09-05T06:33:45.379Z,20.39
2022-09-05T06:36:10.325Z,20.60
2022-09-05T06:38:44.613Z,20.82
2022-09-05T06:41:15.174Z,21.06
2022-09-05T06:43:44.414Z,21.25
2022-09-05T06:46:05.937Z,21.46
2022-09-05T06:48:44.688Z,21.67
2022-09-05T06:51:08.524Z,21.87
2022-09-05T06:53:29.003Z,22.04
2022-09-05T06:55:59.909Z,22.21
2022-09-05T06:58:25.946Z,22.38
2022-09-05T07:00:48.539Z,22.52
2022-09-05T07:03:17.393Z,22.69
2022-09-05T07:05:44.506Z,22.87
2022-09-05T07:08:34.870Z,23.04
2022-09-05T07:10:38.770Z,23.22
2022-09-05T07:13:06.351Z,23.40
2022-09-05T07:15:36.082Z,23.56
2022-09-05T07:18:10.955Z,23.74
2022-09-05T07:20:18.333Z,23.90
2022-09-05T07:22:49.401Z,24.06
2022-09-05T07:24:54.462Z,24.19
2022-09-05T07:26:59.911Z,24.34
2022-09-05T07:29:09.884Z,24.47
2022-09-05T07:31:33.640Z,24.61
2022-09-05T07:33:42.695Z,24.77
2022-09-05T07:35:45.034Z,24.93
2022-09-05T07:37:54.385Z,25.05
2022-09-05T07:40:02.413Z,25.19
2022-09-05T07:42:27.454Z,25.36
2022-09-05T07:44:38.781Z,25.48
2022-09-05T07:46:42.221Z,25.61
2022-09-05T07:48:48.407Z,25.70
2022-09-05T07:56:42.552Z,25.79
2022-09-05T07:56:49.701Z,25.89
2022-09-05T07:57:03.159Z,25.98
2022-09-05T07:58:17.578Z,26.07
2022-09-05T08:00:26.907Z,26.18
2022-09-05T08:02:31.999Z,26.29
2022-09-05T08:04:36.429Z,26.39
2022-09-05T08:07:46.174Z,26.52
2022-09-05T08:10:05.316Z,26.63
2022-09-05T08:11:42.880Z,26.76
2022-09-05T08:14:43.694Z,26.85
2022-09-05T08:16:28.452Z,26.98
2022-09-05T08:18:42.824Z,27.08
2022-09-05T08:20:51.798Z,27.21
2022-09-05T08:23:06.316Z,27.34
2022-09-05T08:25:17.781Z,27.47
2022-09-05T08:27:28.196Z,27.61
2022-09-05T08:29:40.679Z,27.74
2022-09-05T08:31:52.680Z,27.87
2022-09-05T08:34:00.592Z,28.01
2022-09-05T08:36:17.835Z,28.13
2022-09-05T08:38:20.379Z,28.27
2022-09-05T08:40:33.180Z,28.39
2022-09-05T08:45:50.655Z,28.51
2022-09-05T08:46:42.890Z,28.66
2022-09-05T08:47:58.303Z,28.77
2022-09-05T08:50:15.365Z,28.88
2022-09-05T08:52:41.682Z,29.00
2022-09-05T08:54:54.893Z,29.11
2022-09-05T08:57:13.862Z,29.22
2022-09-05T08:59:32.869Z,29.32
2022-09-05T09:01:57.701Z,29.44
2022-09-05T09:04:40.008Z,29.56
2022-09-05T09:07:47.163Z,29.71
2022-09-05T09:09:55.150Z,29.86
2022-09-05T09:12:07.770Z,30.01
2022-09-05T09:14:46.842Z,30.15
2022-09-05T09:16:54.185Z,30.28
2022-09-05T09:19:11.130Z,30.40
2022-09-05T09:21:25.272Z,30.52
2022-09-05T09:23:51.212Z,30.66
2022-09-05T09:26:13.299Z,30.80
2022-09-05T09:28:50.345Z,30.94
2022-09-05T09:31:03.847Z,31.10
2022-09-05T09:33:11.631Z,31.22
2022-09-05T09:35:23.492Z,31.34
2022-09-05T09:37:59.794Z,31.46
2022-09-05T09:40:33.895Z,31.58
2022-09-05T09:42:47.756Z,31.71
2022-09-05T09:45:29.060Z,31.84
2022-09-05T09:47:55.140Z,31.98
2022-09-05T09:50:53.514Z,32.12
2022-09-05T09:53:13.128Z,32.29
2022-09-05T09:55:46.399Z,32.44
2022-09-05T09:58:00.905Z,32.59
2022-09-05T10:00:21.296Z,32.72
2022-09-05T10:06:30.183Z,32.83
2022-09-05T10:10:46.659Z,32.97
2022-09-05T10:10:53.340Z,33.10
2022-09-05T10:13:50.357Z,33.39
2022-09-05T10:16:27.560Z,33.53
2022-09-05T10:18:51.306Z,33.69
2022-09-05T10:21:27.264Z,33.81
2022-09-05T10:23:52.467Z,33.94
2022-09-05T10:26:24.770Z,34.05
2022-09-05T10:29:06.621Z,34.16
2022-09-05T10:33:01.070Z,34.29
2022-09-05T10:35:13.251Z,34.42
2022-09-05T10:36:33.710Z,34.55
2022-09-05T10:38:42.993Z,34.64
2022-09-05T10:41:19.710Z,34.75
2022-09-05T10:43:31.219Z,34.86
2022-09-05T10:45:57.218Z,34.97
2022-09-05T10:48:23.627Z,35.05
2022-09-05T10:50:29.270Z,35.15
2022-09-05T10:52:59.245Z,35.23
2022-09-05T10:55:22.005Z,35.33
2022-09-05T10:57:39.756Z,35.42
2022-09-05T11:02:16.374Z,35.51
2022-09-05T11:02:36.722Z,35.65
2022-09-05T11:05:22.607Z,35.72
2022-09-05T11:07:53.146Z,35.79
2022-09-05T11:10:17.500Z,35.90
2022-09-05T11:12:57.654Z,35.97
2022-09-05T11:15:02.910Z,36.09
2022-09-05T11:17:27.708Z,36.15
2022-09-05T11:19:56.380Z,36.24
2022-09-05T11:22:22.656Z,36.34
2022-09-05T11:24:31.285Z,36.41
2022-09-05T11:26:47.706Z,36.45
2022-09-05T11:29:14.197Z,36.52
2022-09-05T11:31:21.184Z,36.55
2022-09-05T11:38:05.811Z,36.55
2022-09-05T11:40:01.997Z,36.38
2022-09-05T11:40:07.554Z,36.48
2022-09-05T11:42:17.748Z,36.30
2022-09-05T11:44:26.963Z,36.27
2022-09-05T11:46:37.255Z,36.18
2022-09-05T11:49:13.102Z,36.03
2022-09-05T11:51:36.191Z,35.89
2022-09-05T11:54:09.881Z,35.69
2022-09-05T11:56:32.501Z,35.52
2022-09-05T11:59:04.863Z,35.35
2022-09-05T12:01:41.850Z,35.16
2022-09-05T12:04:16.957Z,34.96
2022-09-05T12:06:33.470Z,34.80
2022-09-05T12:08:52.934Z,34.64
2022-09-05T12:11:08.587Z,34.51
2022-09-05T12:13:37.803Z,34.36
2022-09-05T12:15:53.413Z,34.24
2022-09-05T12:18:34.973Z,34.07
2022-09-05T12:20:55.496Z,33.94
2022-09-05T12:23:25.391Z,33.85
2022-09-05T12:27:40.842Z,33.79
2022-09-05T12:29:34.775Z,33.79
2022-09-05T12:32:30.560Z,33.84
2022-09-05T12:36:07.463Z,33.93
2022-09-05T12:40:06.274Z,34.00
2022-09-05T12:41:37.035Z,34.07
2022-09-05T12:42:11.296Z,34.10
2022-09-05T12:44:44.507Z,34.19
2022-09-05T12:47:17.051Z,34.29
2022-09-05T12:49:35.097Z,34.42
2022-09-05T12:51:54.052Z,34.54
2022-09-05T12:54:04.308Z,34.63
2022-09-05T12:58:04.111Z,34.70
2022-09-05T13:02:56.873Z,34.82
2022-09-05T13:03:06.577Z,34.93
2022-09-05T13:04:20.310Z,35.04
2022-09-05T13:06:42.909Z,35.11
2022-09-05T13:08:52.843Z,35.18
2022-09-05T13:14:46.291Z,35.25
2022-09-05T13:14:52.377Z,35.33
2022-09-05T13:15:54.042Z,35.41
2022-09-05T13:18:25.183Z,35.47
2022-09-05T13:20:49.269Z,35.54
2022-09-05T13:22:53.314Z,35.60
2022-09-05T13:25:08.958Z,35.65
2022-09-05T13:27:17.283Z,35.75
2022-09-05T13:29:32.257Z,35.81
2022-09-05T13:38:04.234Z,35.92
2022-09-05T13:38:09.896Z,35.98
2022-09-05T13:38:12.826Z,36.04
2022-09-05T13:39:19.797Z,36.09
2022-09-05T13:41:34.746Z,36.12
2022-09-05T13:43:41.119Z,36.15
2022-09-05T13:46:17.378Z,36.16
2022-09-05T13:51:26.028Z,36.14
2022-09-05T13:53:36.805Z,36.12
2022-09-05T13:55:54.819Z,36.10
2022-09-05T13:58:11.924Z,36.07
2022-09-05T14:00:28.007Z,36.03
2022-09-05T14:05:50.377Z,35.97
2022-09-05T14:08:18.046Z,35.94
2022-09-05T14:10:47.114Z,35.91
2022-09-05T14:13:04.291Z,35.84
2022-09-05T14:15:32.034Z,35.79
2022-09-05T14:17:57.939Z,35.73
2022-09-05T14:20:18.915Z,35.72
2022-09-05T14:22:52.185Z,35.62
2022-09-05T14:24:58.750Z,35.59
2022-09-05T14:27:03.504Z,35.53
2022-09-05T14:29:17.034Z,35.49
2022-09-05T14:33:16.746Z,35.44
2022-09-05T14:37:49.104Z,35.35
2022-09-05T14:38:01.356Z,35.27
2022-09-05T14:38:48.990Z,35.21
2022-09-05T14:41:23.256Z,35.14
2022-09-05T14:43:47.532Z,35.08
2022-09-05T14:46:11.252Z,35.01
2022-09-05T14:48:35.026Z,34.91
2022-09-05T14:50:42.376Z,34.86
2022-09-05T14:55:29.122Z,34.66
2022-09-05T15:02:39.090Z,34.61
2022-09-05T15:02:44.859Z,34.50
2022-09-05T15:02:57.410Z,34.42
2022-09-05T15:05:11.192Z,34.33
2022-09-05T15:07:24.519Z,34.26
2022-09-05T15:11:21.676Z,34.20
2022-09-05T15:12:24.408Z,34.14
2022-09-05T15:14:12.005Z,34.10
2022-09-05T15:16:15.366Z,34.05
2022-09-05T15:18:25.400Z,34.00
2022-09-05T15:20:31.550Z,33.93
2022-09-05T15:22:37.697Z,33.87
2022-09-05T15:24:42.277Z,33.79
2022-09-05T15:27:03.030Z,33.69
2022-09-05T15:29:13.319Z,33.64
2022-09-05T15:31:19.184Z,33.58
2022-09-05T15:33:25.548Z,33.51
2022-09-05T15:35:40.954Z,33.40
2022-09-05T15:37:43.563Z,33.35
2022-09-05T15:39:45.273Z,33.27
2022-09-05T15:41:47.116Z,33.21
2022-09-05T15:43:53.949Z,33.13
2022-09-05T15:46:04.119Z,33.03
2022-09-05T15:48:12.500Z,32.97
2022-09-05T15:50:22.112Z,32.88
2022-09-05T15:52:29.152Z,32.83
2022-09-05T15:54:38.687Z,32.75
2022-09-05T15:56:48.313Z,32.70
2022-09-05T15:58:55.042Z,32.66
2022-09-05T16:00:59.877Z,32.60
2022-09-05T16:04:38.031Z,32.55
2022-09-05T16:10:34.320Z,32.40
2022-09-05T16:10:36.984Z,32.47
2022-09-05T16:10:37.156Z,32.33
2022-09-05T16:12:53.345Z,32.28
2022-09-05T16:15:19.889Z,32.23
2022-09-05T16:23:20.017Z,32.20
2022-09-05T16:23:24.443Z,32.12
2022-09-05T16:23:29.336Z,32.07
2022-09-05T16:24:59.212Z,32.01
2022-09-05T16:27:06.278Z,31.94
2022-09-05T16:29:10.937Z,31.90
2022-09-05T16:31:50.232Z,31.84
2022-09-05T16:33:52.202Z,31.77
2022-09-05T16:36:12.905Z,31.71
2022-09-05T16:38:48.982Z,31.67
2022-09-05T16:40:55.870Z,31.62
2022-09-05T16:43:02.460Z,31.59
2022-09-05T16:45:12.042Z,31.58
2022-09-05T16:47:25.580Z,31.54
2022-09-05T16:49:42.142Z,31.52
2022-09-05T16:51:52.838Z,31.51
2022-09-05T16:53:59.721Z,31.46
2022-09-05T16:56:15.214Z,31.43
2022-09-05T16:58:33.633Z,31.41
2022-09-05T17:00:48.624Z,31.37
2022-09-05T17:02:59.406Z,31.31
2022-09-05T17:05:22.683Z,31.29
2022-09-05T17:07:42.908Z,31.24
2022-09-05T17:09:45.973Z,31.24
2022-09-05T17:12:00.608Z,31.21
2022-09-05T17:14:10.806Z,31.22
2022-09-05T17:16:29.763Z,31.15
2022-09-05T17:18:35.425Z,31.16
2022-09-05T17:20:40.705Z,31.17
2022-09-05T17:29:20.566Z,31.18
2022-09-05T17:29:27.607Z,31.19
2022-09-05T17:29:47.328Z,31.19
2022-09-05T17:32:38.757Z,31.18
2022-09-05T17:35:18.077Z,31.18
2022-09-05T17:38:11.182Z,31.12
2022-09-05T17:40:38.471Z,31.10
2022-09-05T17:42:50.027Z,31.07
2022-09-05T17:45:07.512Z,31.01
2022-09-05T17:47:36.305Z,30.98
2022-09-05T17:49:45.250Z,30.93
2022-09-05T17:51:52.960Z,30.89
2022-09-05T17:54:00.718Z,30.84
2022-09-05T17:56:04.665Z,30.78
2022-09-05T17:58:49.282Z,30.71
2022-09-05T18:00:52.196Z,30.65
2022-09-05T18:02:56.679Z,30.56
2022-09-05T18:05:01.433Z,30.49
2022-09-05T18:07:25.754Z,30.36
2022-09-05T18:09:37.073Z,30.27
2022-09-05T18:12:02.063Z,30.19
2022-09-05T18:17:37.188Z,30.02
2022-09-05T18:19:33.545Z,29.95
2022-09-05T18:21:50.125Z,29.87
2022-09-05T18:24:07.867Z,29.79
2022-09-05T18:26:24.149Z,29.72
2022-09-05T18:28:57.288Z,29.62
2022-09-05T18:31:41.747Z,29.52
2022-09-05T18:34:13.276Z,29.39
2022-09-05T18:36:25.924Z,29.32
2022-09-05T18:38:51.782Z,29.26
2022-09-05T18:41:11.408Z,29.16
2022-09-05T18:43:31.935Z,29.09
2022-09-05T18:45:35.744Z,29.03
2022-09-05T18:47:51.138Z,28.96
2022-09-05T18:50:24.060Z,28.87
2022-09-05T18:52:25.099Z,28.78
2022-09-05T18:54:28.055Z,28.70
2022-09-05T18:57:09.712Z,28.65
2022-09-05T18:59:13.027Z,28.55
2022-09-05T19:01:22.725Z,28.48
2022-09-05T19:03:33.154Z,28.43
2022-09-05T19:05:48.972Z,28.34
2022-09-05T19:07:59.333Z,28.29
2022-09-05T19:10:35.697Z,28.18
2022-09-05T19:12:53.430Z,28.11
2022-09-05T19:14:58.869Z,28.02
2022-09-05T19:17:13.436Z,27.95
2022-09-05T19:19:24.772Z,27.87
2022-09-05T19:21:33.172Z,27.80
2022-09-05T19:23:51.343Z,27.73
2022-09-05T19:26:09.959Z,27.66
2022-09-05T19:36:56.175Z,27.54
2022-09-05T19:36:59.407Z,27.60
2022-09-05T19:37:03.786Z,27.47
2022-09-05T19:37:15.101Z,27.40
2022-09-05T19:38:13.301Z,27.33
2022-09-05T19:47:27.603Z,27.27
2022-09-05T19:47:29.535Z,27.21
2022-09-05T19:47:37.379Z,27.17
2022-09-05T19:48:04.104Z,27.07
2022-09-05T19:50:01.253Z,27.02
2022-09-05T19:52:16.467Z,27.00
2022-09-05T19:54:26.830Z,26.95
2022-09-05T19:56:40.598Z,26.89
2022-09-05T19:58:42.357Z,26.85
2022-09-05T20:00:50.402Z,26.81
2022-09-05T20:03:03.261Z,26.75
2022-09-05T20:05:08.091Z,26.72
2022-09-05T20:07:18.897Z,26.68
2022-09-05T20:09:25.431Z,26.64
2022-09-05T20:11:37.353Z,26.61
2022-09-05T20:13:47.799Z,26.54
2022-09-05T20:15:50.344Z,26.51
2022-09-05T20:17:53.902Z,26.44
2022-09-05T20:20:24.759Z,26.39
2022-09-05T20:22:49.639Z,26.36
2022-09-05T20:24:51.778Z,26.32
2022-09-05T20:26:54.239Z,26.28
2022-09-05T20:29:11.082Z,26.24
2022-09-05T20:31:27.784Z,26.17
2022-09-05T20:33:39.752Z,26.10
2022-09-05T20:43:07.989Z,26.08
2022-09-05T20:43:20.810Z,25.96
2022-09-05T20:43:21.746Z,26.03
2022-09-05T20:43:37.473Z,25.90
2022-09-05T20:46:22.707Z,25.84
2022-09-05T20:54:09.537Z,25.79
2022-09-05T20:54:19.241Z,25.72
2022-09-05T20:54:24.430Z,25.68
2022-09-05T20:55:40.211Z,25.62
2022-09-05T20:57:43.732Z,25.61
2022-09-05T20:59:48.400Z,25.57
2022-09-05T21:02:04.864Z,25.54
2022-09-05T21:04:06.803Z,25.51
2022-09-05T21:06:25.726Z,25.47
2022-09-05T21:08:35.327Z,25.42
2022-09-05T21:10:56.063Z,25.39
2022-09-05T21:12:59.014Z,25.36
2022-09-05T21:15:22.907Z,25.31
2022-09-05T21:17:31.395Z,25.27
2022-09-05T21:19:35.402Z,25.23
2022-09-05T21:21:37.099Z,25.20
2022-09-05T21:23:38.831Z,25.17
2022-09-05T21:26:00.574Z,25.12
2022-09-05T21:28:22.837Z,25.10
2022-09-05T21:30:40.300Z,25.06
2022-09-05T21:32:42.129Z,25.03
2022-09-05T21:34:55.172Z,25.01
2022-09-05T21:37:07.332Z,24.99
2022-09-05T21:39:09.735Z,24.94
2022-09-05T21:41:12.811Z,24.91
2022-09-05T21:47:35.934Z,24.88
2022-09-05T21:47:46.103Z,24.83
2022-09-05T21:48:05.234Z,24.77
2022-09-05T21:50:10.357Z,24.77
2022-09-05T21:52:22.237Z,24.74
2022-09-05T21:59:16.795Z,24.71
2022-09-05T21:59:25.235Z,24.67
2022-09-05T21:59:41.542Z,24.62
2022-09-05T22:01:53.169Z,24.58
2022-09-05T22:03:58.262Z,24.57
2022-09-05T22:06:03.942Z,24.52
2022-09-05T22:08:10.271Z,24.50
2022-09-05T22:10:12.113Z,24.45
2022-09-05T22:12:29.948Z,24.42
2022-09-05T22:14:35.370Z,24.38
2022-09-05T22:16:41.351Z,24.35
2022-09-05T22:18:49.763Z,24.32
2022-09-05T22:21:24.662Z,24.30
2022-09-05T22:23:13.882Z,24.28
2022-09-05T22:25:27.379Z,24.23
2022-09-05T22:27:31.596Z,24.22
2022-09-05T22:29:35.387Z,24.22
2022-09-05T22:31:37.021Z,24.19
2022-09-05T22:33:38.592Z,24.18
2022-09-05T22:35:40.779Z,24.16
2022-09-05T22:37:44.582Z,24.13
2022-09-05T22:39:49.376Z,24.10
2022-09-05T22:41:51.010Z,24.06
2022-09-05T22:43:52.555Z,24.02
2022-09-05T22:45:59.719Z,23.99
2022-09-05T22:48:10.313Z,23.97
2022-09-05T22:50:11.886Z,23.95
2022-09-05T22:52:16.213Z,23.93
2022-09-05T22:54:17.781Z,23.89
2022-09-05T22:56:33.992Z,23.86
2022-09-05T22:58:43.465Z,23.84
2022-09-05T23:00:46.340Z,23.81
2022-09-05T23:02:52.166Z,23.79
2022-09-05T23:04:53.978Z,23.74
2022-09-05T23:06:58.101Z,23.70
2022-09-05T23:08:59.645Z,23.66
2022-09-05T23:11:13.446Z,23.62
2022-09-05T23:13:15.062Z,23.59
2022-09-05T23:15:20.191Z,23.54
2022-09-05T23:17:21.838Z,23.50
2022-09-05T23:19:23.413Z,23.46
2022-09-05T23:21:25.189Z,23.44
2022-09-05T23:23:26.676Z,23.38
2022-09-05T23:25:28.264Z,23.35
2022-09-05T23:27:34.981Z,23.32
2022-09-05T23:29:36.500Z,23.29
2022-09-05T23:31:38.166Z,23.27
2022-09-05T23:33:41.879Z,23.24
2022-09-05T23:35:43.512Z,23.19
2022-09-05T23:37:46.332Z,23.16
2022-09-05T23:39:47.915Z,23.13
2022-09-05T23:41:49.471Z,23.11
2022-09-05T23:43:51.041Z,23.08
2022-09-05T23:45:52.987Z,23.05
2022-09-05T23:47:57.658Z,23.03
2022-09-05T23:49:59.292Z,23.00
2022-09-05T23:52:00.878Z,22.96
2022-09-05T23:54:02.451Z,22.95
2022-09-05T23:56:06.615Z,22.94
2022-09-05T23:58:11.589Z,22.92
